sensor_id;sensor_type;location;lat;lon;timestamp;P1;durP1;ratioP1;P2;durP2;ratioP2
35126;SDS011;21300;52.006;5.798;2022-09-12T00:00:25;9.07;;;5.72;;
35126;SDS011;21300;52.006;5.798;2022-09-12T00:02:52;6.97;;;5.75;;
35126;SDS011;21300;52.006;5.798;2022-09-12T00:05:18;6.22;;;5.63;;
35126;SDS011;21300;52.006;5.798;2022-09-12T00:07:44;7.85;;;6.07;;
35126;SDS011;21300;52.006;5.798;2022-09-12T00:10:09;7.60;;;5.65;;
35126;SDS011;21300;52.006;5.798;2022-09-12T00:12:35;14.38;;;6.90;;
35126;SDS011;21300;52.006;5.798;2022-09-12T00:15:01;9.63;;;5.65;;
35126;SDS011;21300;52.006;5.798;2022-09-12T00:17:27;7.82;;;5.50;;
35126;SDS011;21300;52.006;5.798;2022-09-12T00:19:52;10.95;;;5.93;;
35126;SDS011;21300;52.006;5.798;2022-09-12T00:22:19;5.63;;;5.13;;
35126;SDS011;21300;52.006;5.798;2022-09-12T00:24:44;8.02;;;5.20;;
35126;SDS011;21300;52.006;5.798;2022-09-12T00:27:10;6.18;;;5.57;;
35126;SDS011;21300;52.006;5.798;2022-09-12T00:29:35;6.32;;;5.63;;
35126;SDS011;21300;52.006;5.798;2022-09-12T00:32:01;7.38;;;5.40;;
35126;SDS011;21300;52.006;5.798;2022-09-12T00:34:27;8.57;;;5.88;;
35126;SDS011;21300;52.006;5.798;2022-09-12T00:36:52;6.82;;;5.45;;
35126;SDS011;21300;52.006;5.798;2022-09-12T00:39:18;8.13;;;5.68;;
35126;SDS011;21300;52.006;5.798;2022-09-12T00:41:44;8.55;;;6.15;;
35126;SDS011;21300;52.006;5.798;2022-09-12T00:49:28;8.00;;;5.57;;
35126;SDS011;21300;52.006;5.798;2022-09-12T00:54:58;7.25;;;6.13;;
35126;SDS011;21300;52.006;5.798;2022-09-12T00:57:42;7.10;;;6.40;;
35126;SDS011;21300;52.006;5.798;2022-09-12T01:00:24;6.88;;;6.18;;
35126;SDS011;21300;52.006;5.798;2022-09-12T01:02:56;7.07;;;5.95;;
35126;SDS011;21300;52.006;5.798;2022-09-12T01:05:25;7.50;;;6.47;;
35126;SDS011;21300;52.006;5.798;2022-09-12T01:07:53;11.13;;;6.68;;
35126;SDS011;21300;52.006;5.798;2022-09-12T01:10:20;7.20;;;6.50;;
35126;SDS011;21300;52.006;5.798;2022-09-12T01:12:47;7.05;;;6.30;;
35126;SDS011;21300;52.006;5.798;2022-09-12T01:15:13;7.82;;;5.28;;
35126;SDS011;21300;52.006;5.798;2022-09-12T01:17:58;7.53;;;5.97;;
35126;SDS011;21300;52.006;5.798;2022-09-12T01:31:24;8.32;;;6.57;;
35126;SDS011;21300;52.006;5.798;2022-09-12T01:36:41;9.85;;;6.20;;
35126;SDS011;21300;52.006;5.798;2022-09-12T01:41:54;7.45;;;5.82;;
35126;SDS011;21300;52.006;5.798;2022-09-12T01:44:45;6.43;;;5.78;;
35126;SDS011;21300;52.006;5.798;2022-09-12T01:47:30;8.25;;;6.38;;
35126;SDS011;21300;52.006;5.798;2022-09-12T01:55:29;10.20;;;6.35;;
35126;SDS011;21300;52.006;5.798;2022-09-12T01:58:11;8.85;;;5.93;;
35126;SDS011;21300;52.006;5.798;2022-09-12T02:00:53;7.18;;;5.88;;
35126;SDS011;21300;52.006;5.798;2022-09-12T02:03:33;7.57;;;5.70;;
35126;SDS011;21300;52.006;5.798;2022-09-12T02:06:14;6.43;;;5.82;;
35126;SDS011;21300;52.006;5.798;2022-09-12T02:11:50;8.25;;;5.93;;
35126;SDS011;21300;52.006;5.798;2022-09-12T02:14:21;8.02;;;6.60;;
35126;SDS011;21300;52.006;5.798;2022-09-12T02:16:59;7.32;;;6.15;;
35126;SDS011;21300;52.006;5.798;2022-09-12T02:19:41;8.38;;;6.80;;
35126;SDS011;21300;52.006;5.798;2022-09-12T02:22:18;9.35;;;6.70;;
35126;SDS011;21300;52.006;5.798;2022-09-12T02:24:47;9.30;;;6.90;;
35126;SDS011;21300;52.006;5.798;2022-09-12T02:27:35;7.85;;;7.05;;
35126;SDS011;21300;52.006;5.798;2022-09-12T02:30:14;9.82;;;6.97;;
35126;SDS011;21300;52.006;5.798;2022-09-12T02:38:08;10.27;;;7.10;;
35126;SDS011;21300;52.006;5.798;2022-09-12T02:40:37;9.63;;;7.80;;
35126;SDS011;21300;52.006;5.798;2022-09-12T02:43:03;9.63;;;7.38;;
35126;SDS011;21300;52.006;5.798;2022-09-12T02:45:30;10.43;;;7.40;;
35126;SDS011;21300;52.006;5.798;2022-09-12T02:48:03;11.25;;;7.60;;
35126;SDS011;21300;52.006;5.798;2022-09-12T02:50:34;11.35;;;8.45;;
35126;SDS011;21300;52.006;5.798;2022-09-12T02:53:00;9.70;;;7.68;;
35126;SDS011;21300;52.006;5.798;2022-09-12T02:55:29;9.57;;;7.93;;
35126;SDS011;21300;52.006;5.798;2022-09-12T02:57:58;10.48;;;8.05;;
35126;SDS011;21300;52.006;5.798;2022-09-12T03:00:29;10.60;;;8.25;;
35126;SDS011;21300;52.006;5.798;2022-09-12T03:05:58;11.73;;;9.32;;
35126;SDS011;21300;52.006;5.798;2022-09-12T03:23:08;13.70;;;9.70;;
35126;SDS011;21300;52.006;5.798;2022-09-12T03:25:48;12.52;;;10.05;;
35126;SDS011;21300;52.006;5.798;2022-09-12T03:28:18;11.30;;;9.32;;
35126;SDS011;21300;52.006;5.798;2022-09-12T03:30:47;12.00;;;10.32;;
35126;SDS011;21300;52.006;5.798;2022-09-12T03:33:19;17.38;;;11.13;;
35126;SDS011;21300;52.006;5.798;2022-09-12T03:35:46;17.27;;;10.25;;
35126;SDS011;21300;52.006;5.798;2022-09-12T03:38:13;14.18;;;10.57;;
35126;SDS011;21300;52.006;5.798;2022-09-12T03:40:39;13.98;;;10.85;;
35126;SDS011;21300;52.006;5.798;2022-09-12T03:43:06;11.88;;;9.13;;
35126;SDS011;21300;52.006;5.798;2022-09-12T03:45:33;13.43;;;10.70;;
35126;SDS011;21300;52.006;5.798;2022-09-12T03:47:59;14.95;;;10.88;;
35126;SDS011;21300;52.006;5.798;2022-09-12T03:50:25;14.07;;;11.10;;
35126;SDS011;21300;52.006;5.798;2022-09-12T03:52:50;15.55;;;10.43;;
35126;SDS011;21300;52.006;5.798;2022-09-12T03:55:16;13.93;;;10.57;;
35126;SDS011;21300;52.006;5.798;2022-09-12T03:57:42;14.88;;;10.63;;
35126;SDS011;21300;52.006;5.798;2022-09-12T04:00:09;14.27;;;10.55;;
35126;SDS011;21300;52.006;5.798;2022-09-12T04:02:35;12.77;;;10.52;;
35126;SDS011;21300;52.006;5.798;2022-09-12T04:05:01;14.27;;;10.43;;
35126;SDS011;21300;52.006;5.798;2022-09-12T04:07:27;14.60;;;11.30;;
35126;SDS011;21300;52.006;5.798;2022-09-12T04:09:52;16.15;;;11.27;;
35126;SDS011;21300;52.006;5.798;2022-09-12T04:12:19;15.02;;;11.55;;
35126;SDS011;21300;52.006;5.798;2022-09-12T04:14:44;14.35;;;11.07;;
35126;SDS011;21300;52.006;5.798;2022-09-12T04:17:10;16.38;;;11.60;;
35126;SDS011;21300;52.006;5.798;2022-09-12T04:19:36;15.38;;;12.32;;
35126;SDS011;21300;52.006;5.798;2022-09-12T04:22:02;16.00;;;12.10;;
35126;SDS011;21300;52.006;5.798;2022-09-12T04:24:28;17.33;;;12.45;;
35126;SDS011;21300;52.006;5.798;2022-09-12T04:26:53;20.27;;;12.90;;
35126;SDS011;21300;52.006;5.798;2022-09-12T04:29:19;18.80;;;13.75;;
35126;SDS011;21300;52.006;5.798;2022-09-12T04:31:45;20.00;;;13.68;;
35126;SDS011;21300;52.006;5.798;2022-09-12T04:34:10;19.60;;;13.43;;
35126;SDS011;21300;52.006;5.798;2022-09-12T04:36:36;21.95;;;14.93;;
35126;SDS011;21300;52.006;5.798;2022-09-12T04:39:02;23.83;;;16.27;;
35126;SDS011;21300;52.006;5.798;2022-09-12T04:41:30;21.10;;;16.35;;
35126;SDS011;21300;52.006;5.798;2022-09-12T04:44:00;25.25;;;16.85;;
35126;SDS011;21300;52.006;5.798;2022-09-12T04:46:30;21.23;;;16.05;;
35126;SDS011;21300;52.006;5.798;2022-09-12T04:48:57;24.10;;;16.58;;
35126;SDS011;21300;52.006;5.798;2022-09-12T04:51:25;25.02;;;18.42;;
35126;SDS011;21300;52.006;5.798;2022-09-12T04:53:53;25.08;;;16.92;;
35126;SDS011;21300;52.006;5.798;2022-09-12T04:56:24;22.65;;;17.27;;
35126;SDS011;21300;52.006;5.798;2022-09-12T04:58:50;30.55;;;19.92;;
35126;SDS011;21300;52.006;5.798;2022-09-12T05:01:17;26.25;;;17.88;;
35126;SDS011;21300;52.006;5.798;2022-09-12T05:03:44;23.63;;;17.60;;
35126;SDS011;21300;52.006;5.798;2022-09-12T05:06:15;25.23;;;17.55;;
35126;SDS011;21300;52.006;5.798;2022-09-12T05:08:46;26.75;;;18.25;;
35126;SDS011;21300;52.006;5.798;2022-09-12T05:11:13;25.13;;;18.80;;
35126;SDS011;21300;52.006;5.798;2022-09-12T05:13:42;29.73;;;19.88;;
35126;SDS011;21300;52.006;5.798;2022-09-12T05:16:12;29.17;;;20.42;;
35126;SDS011;21300;52.006;5.798;2022-09-12T05:18:39;32.35;;;21.05;;
35126;SDS011;21300;52.006;5.798;2022-09-12T05:21:07;32.60;;;21.17;;
35126;SDS011;21300;52.006;5.798;2022-09-12T05:23:34;35.70;;;20.75;;
35126;SDS011;21300;52.006;5.798;2022-09-12T05:26:01;34.13;;;20.30;;
35126;SDS011;21300;52.006;5.798;2022-09-12T05:28:28;31.58;;;20.73;;
35126;SDS011;21300;52.006;5.798;2022-09-12T05:31:05;37.25;;;21.83;;
35126;SDS011;21300;52.006;5.798;2022-09-12T05:33:38;31.42;;;20.88;;
35126;SDS011;21300;52.006;5.798;2022-09-12T05:36:24;35.80;;;20.67;;
35126;SDS011;21300;52.006;5.798;2022-09-12T05:38:54;35.05;;;21.70;;
35126;SDS011;21300;52.006;5.798;2022-09-12T05:41:21;31.75;;;21.77;;
35126;SDS011;21300;52.006;5.798;2022-09-12T05:43:52;34.85;;;21.20;;
35126;SDS011;21300;52.006;5.798;2022-09-12T05:46:19;34.40;;;22.33;;
35126;SDS011;21300;52.006;5.798;2022-09-12T05:48:46;32.38;;;22.25;;
35126;SDS011;21300;52.006;5.798;2022-09-12T05:53:43;33.13;;;21.52;;
35126;SDS011;21300;52.006;5.798;2022-09-12T05:56:11;36.90;;;22.90;;
35126;SDS011;21300;52.006;5.798;2022-09-12T05:58:39;34.60;;;23.63;;
35126;SDS011;21300;52.006;5.798;2022-09-12T06:01:07;37.13;;;23.08;;
35126;SDS011;21300;52.006;5.798;2022-09-12T06:03:46;39.55;;;24.25;;
35126;SDS011;21300;52.006;5.798;2022-09-12T06:06:13;39.70;;;25.15;;
35126;SDS011;21300;52.006;5.798;2022-09-12T06:08:41;35.95;;;23.48;;
35126;SDS011;21300;52.006;5.798;2022-09-12T06:11:09;39.75;;;23.38;;
35126;SDS011;21300;52.006;5.798;2022-09-12T06:13:37;34.38;;;22.17;;
35126;SDS011;21300;52.006;5.798;2022-09-12T06:18:45;44.15;;;25.40;;
35126;SDS011;21300;52.006;5.798;2022-09-12T06:21:16;48.72;;;27.88;;
35126;SDS011;21300;52.006;5.798;2022-09-12T06:23:42;45.17;;;27.25;;
35126;SDS011;21300;52.006;5.798;2022-09-12T06:26:10;45.58;;;26.98;;
35126;SDS011;21300;52.006;5.798;2022-09-12T06:28:37;52.85;;;30.50;;
35126;SDS011;21300;52.006;5.798;2022-09-12T06:31:05;56.22;;;31.88;;
35126;SDS011;21300;52.006;5.798;2022-09-12T06:33:32;56.28;;;31.45;;
35126;SDS011;21300;52.006;5.798;2022-09-12T06:36:06;57.70;;;32.97;;
35126;SDS011;21300;52.006;5.798;2022-09-12T06:38:36;61.45;;;33.38;;
35126;SDS011;21300;52.006;5.798;2022-09-12T06:41:03;55.97;;;31.60;;
35126;SDS011;21300;52.006;5.798;2022-09-12T06:43:30;64.88;;;33.92;;
35126;SDS011;21300;52.006;5.798;2022-09-12T06:45:56;67.93;;;36.65;;
35126;SDS011;21300;52.006;5.798;2022-09-12T06:48:21;71.22;;;37.90;;
35126;SDS011;21300;52.006;5.798;2022-09-12T06:50:57;66.75;;;37.28;;
35126;SDS011;21300;52.006;5.798;2022-09-12T06:53:29;67.82;;;37.65;;
35126;SDS011;21300;52.006;5.798;2022-09-12T06:56:01;80.07;;;37.83;;
35126;SDS011;21300;52.006;5.798;2022-09-12T06:58:29;77.82;;;41.40;;
35126;SDS011;21300;52.006;5.798;2022-09-12T07:01:08;75.78;;;39.67;;
35126;SDS011;21300;52.006;5.798;2022-09-12T07:03:36;80.70;;;40.47;;
35126;SDS011;21300;52.006;5.798;2022-09-12T07:06:12;72.68;;;37.60;;
35126;SDS011;21300;52.006;5.798;2022-09-12T07:08:40;81.03;;;41.40;;
35126;SDS011;21300;52.006;5.798;2022-09-12T07:11:14;79.00;;;41.42;;
35126;SDS011;21300;52.006;5.798;2022-09-12T07:13:43;75.97;;;41.30;;
35126;SDS011;21300;52.006;5.798;2022-09-12T07:16:10;79.68;;;42.70;;
35126;SDS011;21300;52.006;5.798;2022-09-12T07:18:36;79.55;;;40.92;;
35126;SDS011;21300;52.006;5.798;2022-09-12T07:21:03;81.05;;;40.88;;
35126;SDS011;21300;52.006;5.798;2022-09-12T07:23:35;76.53;;;41.60;;
35126;SDS011;21300;52.006;5.798;2022-09-12T07:26:01;80.28;;;41.95;;
35126;SDS011;21300;52.006;5.798;2022-09-12T07:28:27;71.75;;;39.67;;
35126;SDS011;21300;52.006;5.798;2022-09-12T07:30:55;75.85;;;39.50;;
35126;SDS011;21300;52.006;5.798;2022-09-12T07:33:27;69.78;;;37.92;;
35126;SDS011;21300;52.006;5.798;2022-09-12T07:35:53;80.32;;;40.33;;
35126;SDS011;21300;52.006;5.798;2022-09-12T07:38:19;79.72;;;40.60;;
35126;SDS011;21300;52.006;5.798;2022-09-12T07:40:45;83.15;;;42.30;;
35126;SDS011;21300;52.006;5.798;2022-09-12T07:43:11;79.85;;;42.63;;
35126;SDS011;21300;52.006;5.798;2022-09-12T07:45:36;77.65;;;41.10;;
35126;SDS011;21300;52.006;5.798;2022-09-12T07:48:05;84.10;;;43.83;;
35126;SDS011;21300;52.006;5.798;2022-09-12T07:50:32;84.55;;;43.67;;
35126;SDS011;21300;52.006;5.798;2022-09-12T07:52:58;84.97;;;43.38;;
35126;SDS011;21300;52.006;5.798;2022-09-12T07:55:24;72.57;;;38.92;;
35126;SDS011;21300;52.006;5.798;2022-09-12T07:57:50;72.60;;;38.92;;
35126;SDS011;21300;52.006;5.798;2022-09-12T08:00:17;74.93;;;39.13;;
35126;SDS011;21300;52.006;5.798;2022-09-12T08:02:43;83.80;;;42.13;;
35126;SDS011;21300;52.006;5.798;2022-09-12T08:05:08;81.15;;;39.72;;
35126;SDS011;21300;52.006;5.798;2022-09-12T08:07:34;71.53;;;39.25;;
35126;SDS011;21300;52.006;5.798;2022-09-12T08:10:00;62.97;;;36.22;;
35126;SDS011;21300;52.006;5.798;2022-09-12T08:12:26;68.60;;;36.83;;
35126;SDS011;21300;52.006;5.798;2022-09-12T08:14:53;74.22;;;37.40;;
35126;SDS011;21300;52.006;5.798;2022-09-12T08:17:18;67.38;;;36.75;;
35126;SDS011;21300;52.006;5.798;2022-09-12T08:19:44;64.93;;;35.45;;
35126;SDS011;21300;52.006;5.798;2022-09-12T08:22:10;70.85;;;38.22;;
35126;SDS011;21300;52.006;5.798;2022-09-12T08:24:36;65.68;;;38.00;;
35126;SDS011;21300;52.006;5.798;2022-09-12T08:27:04;67.50;;;37.92;;
35126;SDS011;21300;52.006;5.798;2022-09-12T08:29:30;53.47;;;31.80;;
35126;SDS011;21300;52.006;5.798;2022-09-12T08:31:55;60.90;;;35.10;;
35126;SDS011;21300;52.006;5.798;2022-09-12T08:34:21;68.53;;;35.35;;
35126;SDS011;21300;52.006;5.798;2022-09-12T08:36:48;69.63;;;34.20;;
35126;SDS011;21300;52.006;5.798;2022-09-12T08:39:15;55.92;;;33.45;;
35126;SDS011;21300;52.006;5.798;2022-09-12T08:41:45;56.60;;;31.33;;
35126;SDS011;21300;52.006;5.798;2022-09-12T08:47:13;50.95;;;30.25;;
35126;SDS011;21300;52.006;5.798;2022-09-12T08:58:00;56.25;;;30.92;;
35126;SDS011;21300;52.006;5.798;2022-09-12T09:17:16;46.47;;;28.20;;
35126;SDS011;21300;52.006;5.798;2022-09-12T09:19:46;46.03;;;26.60;;
35126;SDS011;21300;52.006;5.798;2022-09-12T09:22:17;45.88;;;27.80;;
35126;SDS011;21300;52.006;5.798;2022-09-12T09:25:06;42.00;;;25.90;;
35126;SDS011;21300;52.006;5.798;2022-09-12T09:27:43;37.47;;;23.77;;
35126;SDS011;21300;52.006;5.798;2022-09-12T09:30:19;38.83;;;24.80;;
35126;SDS011;21300;52.006;5.798;2022-09-12T09:32:49;36.50;;;22.10;;
35126;SDS011;21300;52.006;5.798;2022-09-12T09:35:21;38.05;;;22.85;;
35126;SDS011;21300;52.006;5.798;2022-09-12T09:37:59;35.17;;;22.33;;
35126;SDS011;21300;52.006;5.798;2022-09-12T09:40:36;31.83;;;20.98;;
35126;SDS011;21300;52.006;5.798;2022-09-12T09:43:21;28.90;;;19.50;;
35126;SDS011;21300;52.006;5.798;2022-09-12T09:45:51;35.72;;;21.55;;
35126;SDS011;21300;52.006;5.798;2022-09-12T09:48:27;30.45;;;21.58;;
35126;SDS011;21300;52.006;5.798;2022-09-12T09:50:56;31.20;;;20.05;;
35126;SDS011;21300;52.006;5.798;2022-09-12T09:55:59;25.90;;;18.33;;
35126;SDS011;21300;52.006;5.798;2022-09-12T09:58:29;26.80;;;19.35;;
35126;SDS011;21300;52.006;5.798;2022-09-12T10:00:57;27.05;;;19.65;;
35126;SDS011;21300;52.006;5.798;2022-09-12T10:03:47;29.42;;;19.65;;
35126;SDS011;21300;52.006;5.798;2022-09-12T10:06:30;31.10;;;20.00;;
35126;SDS011;21300;52.006;5.798;2022-09-12T10:09:04;29.45;;;18.02;;
35126;SDS011;21300;52.006;5.798;2022-09-12T10:11:33;23.45;;;17.10;;
35126;SDS011;21300;52.006;5.798;2022-09-12T10:14:01;27.23;;;18.88;;
35126;SDS011;21300;52.006;5.798;2022-09-12T10:16:29;27.05;;;18.50;;
35126;SDS011;21300;52.006;5.798;2022-09-12T10:19:00;25.27;;;18.42;;
35126;SDS011;21300;52.006;5.798;2022-09-12T10:21:29;25.67;;;16.90;;
35126;SDS011;21300;52.006;5.798;2022-09-12T10:24:05;25.17;;;17.20;;
35126;SDS011;21300;52.006;5.798;2022-09-12T10:26:41;22.75;;;17.00;;
35126;SDS011;21300;52.006;5.798;2022-09-12T10:29:21;24.13;;;17.42;;
35126;SDS011;21300;52.006;5.798;2022-09-12T10:31:52;24.17;;;17.00;;
35126;SDS011;21300;52.006;5.798;2022-09-12T10:36:50;28.00;;;20.25;;
35126;SDS011;21300;52.006;5.798;2022-09-12T10:39:18;22.73;;;16.88;;
35126;SDS011;21300;52.006;5.798;2022-09-12T10:41:44;21.73;;;14.95;;
35126;SDS011;21300;52.006;5.798;2022-09-12T10:44:14;22.75;;;15.50;;
35126;SDS011;21300;52.006;5.798;2022-09-12T10:46:42;22.23;;;15.63;;
35126;SDS011;21300;52.006;5.798;2022-09-12T10:49:12;22.48;;;17.77;;
35126;SDS011;21300;52.006;5.798;2022-09-12T10:51:47;28.30;;;15.93;;
35126;SDS011;21300;52.006;5.798;2022-09-12T10:54:13;23.77;;;17.58;;
35126;SDS011;21300;52.006;5.798;2022-09-12T11:15:51;18.33;;;13.65;;
35126;SDS011;21300;52.006;5.798;2022-09-12T11:21:51;18.42;;;14.13;;
35126;SDS011;21300;52.006;5.798;2022-09-12T11:27:29;18.27;;;14.43;;
35126;SDS011;21300;52.006;5.798;2022-09-12T11:30:15;16.25;;;11.45;;
35126;SDS011;21300;52.006;5.798;2022-09-12T11:35:48;12.45;;;10.23;;
35126;SDS011;21300;52.006;5.798;2022-09-12T11:38:25;12.52;;;9.85;;
35126;SDS011;21300;52.006;5.798;2022-09-12T11:41:43;13.02;;;9.40;;
35126;SDS011;21300;52.006;5.798;2022-09-12T11:44:09;15.13;;;11.77;;
35126;SDS011;21300;52.006;5.798;2022-09-12T11:46:48;11.88;;;9.05;;
35126;SDS011;21300;52.006;5.798;2022-09-12T11:49:35;13.73;;;10.93;;
35126;SDS011;21300;52.006;5.798;2022-09-12T11:54:50;11.90;;;8.75;;
35126;SDS011;21300;52.006;5.798;2022-09-12T11:57:29;11.27;;;7.82;;
35126;SDS011;21300;52.006;5.798;2022-09-12T12:08:05;7.93;;;6.80;;
35126;SDS011;21300;52.006;5.798;2022-09-12T12:10:54;10.35;;;6.38;;
35126;SDS011;21300;52.006;5.798;2022-09-12T12:13:21;7.13;;;5.93;;
35126;SDS011;21300;52.006;5.798;2022-09-12T12:16:13;8.65;;;7.10;;
35126;SDS011;21300;52.006;5.798;2022-09-12T12:18:40;10.60;;;6.40;;
35126;SDS011;21300;52.006;5.798;2022-09-12T12:21:20;7.70;;;5.95;;
35126;SDS011;21300;52.006;5.798;2022-09-12T12:26:40;6.55;;;5.53;;
35126;SDS011;21300;52.006;5.798;2022-09-12T12:34:32;8.48;;;6.38;;
35126;SDS011;21300;52.006;5.798;2022-09-12T12:50:05;6.28;;;5.68;;
35126;SDS011;21300;52.006;5.798;2022-09-12T12:52:44;9.50;;;5.45;;
35126;SDS011;21300;52.006;5.798;2022-09-12T12:55:24;8.55;;;6.38;;
35126;SDS011;21300;52.006;5.798;2022-09-12T12:58:02;8.05;;;5.30;;
35126;SDS011;21300;52.006;5.798;2022-09-12T13:09:07;7.05;;;4.90;;
35126;SDS011;21300;52.006;5.798;2022-09-12T13:11:43;6.13;;;4.63;;
35126;SDS011;21300;52.006;5.798;2022-09-12T13:20:25;6.20;;;5.60;;
35126;SDS011;21300;52.006;5.798;2022-09-12T13:22:56;6.03;;;5.32;;
35126;SDS011;21300;52.006;5.798;2022-09-12T13:25:34;7.63;;;5.72;;
35126;SDS011;21300;52.006;5.798;2022-09-12T13:30:36;5.88;;;4.80;;
35126;SDS011;21300;52.006;5.798;2022-09-12T13:33:12;8.95;;;5.90;;
35126;SDS011;21300;52.006;5.798;2022-09-12T13:36:06;8.10;;;5.80;;
35126;SDS011;21300;52.006;5.798;2022-09-12T13:39:01;9.70;;;6.03;;
35126;SDS011;21300;52.006;5.798;2022-09-12T13:44:40;6.43;;;5.60;;
35126;SDS011;21300;52.006;5.798;2022-09-12T13:47:12;8.05;;;5.20;;
35126;SDS011;21300;52.006;5.798;2022-09-12T13:50:05;6.30;;;5.40;;
35126;SDS011;21300;52.006;5.798;2022-09-12T13:52:33;6.32;;;5.22;;
35126;SDS011;21300;52.006;5.798;2022-09-12T13:55:04;6.43;;;5.22;;
35126;SDS011;21300;52.006;5.798;2022-09-12T13:57:36;7.35;;;5.38;;
35126;SDS011;21300;52.006;5.798;2022-09-12T14:00:07;7.43;;;5.20;;
35126;SDS011;21300;52.006;5.798;2022-09-12T14:02:44;6.15;;;4.55;;
35126;SDS011;21300;52.006;5.798;2022-09-12T14:05:13;7.60;;;4.60;;
35126;SDS011;21300;52.006;5.798;2022-09-12T14:10:39;6.85;;;4.43;;
35126;SDS011;21300;52.006;5.798;2022-09-12T14:13:18;5.90;;;4.90;;
35126;SDS011;21300;52.006;5.798;2022-09-12T14:15:47;4.82;;;4.30;;
35126;SDS011;21300;52.006;5.798;2022-09-12T14:18:20;4.50;;;3.88;;
35126;SDS011;21300;52.006;5.798;2022-09-12T14:20:54;5.10;;;4.53;;
35126;SDS011;21300;52.006;5.798;2022-09-12T14:23:30;6.50;;;4.35;;
35126;SDS011;21300;52.006;5.798;2022-09-12T14:25:57;5.93;;;4.22;;
35126;SDS011;21300;52.006;5.798;2022-09-12T14:28:26;4.65;;;3.97;;
35126;SDS011;21300;52.006;5.798;2022-09-12T14:33:49;5.50;;;3.90;;
35126;SDS011;21300;52.006;5.798;2022-09-12T14:38:57;8.07;;;4.30;;
35126;SDS011;21300;52.006;5.798;2022-09-12T14:41:35;3.97;;;3.35;;
35126;SDS011;21300;52.006;5.798;2022-09-12T14:44:05;6.03;;;3.83;;
35126;SDS011;21300;52.006;5.798;2022-09-12T14:46:40;5.63;;;3.72;;
35126;SDS011;21300;52.006;5.798;2022-09-12T14:49:07;4.38;;;3.65;;
35126;SDS011;21300;52.006;5.798;2022-09-12T14:51:43;6.32;;;4.00;;
35126;SDS011;21300;52.006;5.798;2022-09-12T14:54:49;6.68;;;3.70;;
35126;SDS011;21300;52.006;5.798;2022-09-12T14:57:29;8.27;;;3.65;;
35126;SDS011;21300;52.006;5.798;2022-09-12T15:02:54;6.00;;;3.60;;
35126;SDS011;21300;52.006;5.798;2022-09-12T15:05:21;3.80;;;2.92;;
35126;SDS011;21300;52.006;5.798;2022-09-12T15:07:58;4.55;;;3.42;;
35126;SDS011;21300;52.006;5.798;2022-09-12T15:10:28;4.95;;;3.20;;
35126;SDS011;21300;52.006;5.798;2022-09-12T15:15:35;5.88;;;3.70;;
35126;SDS011;21300;52.006;5.798;2022-09-12T15:18:02;3.97;;;2.80;;
35126;SDS011;21300;52.006;5.798;2022-09-12T15:20:29;3.40;;;2.90;;
35126;SDS011;21300;52.006;5.798;2022-09-12T15:23:15;3.83;;;2.63;;
35126;SDS011;21300;52.006;5.798;2022-09-12T15:25:49;6.47;;;3.00;;
35126;SDS011;21300;52.006;5.798;2022-09-12T15:28:16;4.15;;;2.63;;
35126;SDS011;21300;52.006;5.798;2022-09-12T15:30:43;4.68;;;3.30;;
35126;SDS011;21300;52.006;5.798;2022-09-12T15:33:10;4.82;;;3.10;;
35126;SDS011;21300;52.006;5.798;2022-09-12T15:35:36;5.88;;;3.00;;
35126;SDS011;21300;52.006;5.798;2022-09-12T15:38:01;5.72;;;3.70;;
35126;SDS011;21300;52.006;5.798;2022-09-12T15:40:27;3.95;;;3.28;;
35126;SDS011;21300;52.006;5.798;2022-09-12T15:42:53;4.68;;;3.28;;
35126;SDS011;21300;52.006;5.798;2022-09-12T15:45:19;5.05;;;3.63;;
35126;SDS011;21300;52.006;5.798;2022-09-12T15:47:49;7.72;;;3.53;;
35126;SDS011;21300;52.006;5.798;2022-09-12T15:50:15;4.03;;;3.63;;
35126;SDS011;21300;52.006;5.798;2022-09-12T15:52:40;5.15;;;3.33;;
35126;SDS011;21300;52.006;5.798;2022-09-12T15:55:11;4.75;;;3.70;;
35126;SDS011;21300;52.006;5.798;2022-09-12T15:57:44;4.00;;;3.40;;
35126;SDS011;21300;52.006;5.798;2022-09-12T16:00:10;5.38;;;3.20;;
35126;SDS011;21300;52.006;5.798;2022-09-12T16:02:41;6.57;;;3.72;;
35126;SDS011;21300;52.006;5.798;2022-09-12T16:05:09;4.80;;;3.40;;
35126;SDS011;21300;52.006;5.798;2022-09-12T16:07:39;5.95;;;3.67;;
35126;SDS011;21300;52.006;5.798;2022-09-12T16:10:04;4.82;;;4.05;;
35126;SDS011;21300;52.006;5.798;2022-09-12T16:12:30;7.18;;;4.25;;
35126;SDS011;21300;52.006;5.798;2022-09-12T16:14:56;6.97;;;3.70;;
35126;SDS011;21300;52.006;5.798;2022-09-12T16:17:22;5.60;;;3.72;;
35126;SDS011;21300;52.006;5.798;2022-09-12T16:19:47;7.55;;;3.67;;
35126;SDS011;21300;52.006;5.798;2022-09-12T16:22:13;6.30;;;3.75;;
35126;SDS011;21300;52.006;5.798;2022-09-12T16:24:38;5.00;;;3.97;;
35126;SDS011;21300;52.006;5.798;2022-09-12T16:27:04;5.43;;;4.90;;
35126;SDS011;21300;52.006;5.798;2022-09-12T16:29:30;6.32;;;4.28;;
35126;SDS011;21300;52.006;5.798;2022-09-12T16:31:56;6.40;;;4.88;;
35126;SDS011;21300;52.006;5.798;2022-09-12T16:34:21;6.63;;;4.03;;
35126;SDS011;21300;52.006;5.798;2022-09-12T16:36:47;7.07;;;4.05;;
35126;SDS011;21300;52.006;5.798;2022-09-12T16:39:12;6.38;;;4.30;;
35126;SDS011;21300;52.006;5.798;2022-09-12T16:41:38;5.45;;;3.65;;
35126;SDS011;21300;52.006;5.798;2022-09-12T16:44:06;6.63;;;3.88;;
35126;SDS011;21300;52.006;5.798;2022-09-12T16:46:32;5.50;;;3.90;;
35126;SDS011;21300;52.006;5.798;2022-09-12T16:48:58;6.03;;;4.03;;
35126;SDS011;21300;52.006;5.798;2022-09-12T16:51:30;10.73;;;4.82;;
35126;SDS011;21300;52.006;5.798;2022-09-12T16:53:57;6.55;;;4.18;;
35126;SDS011;21300;52.006;5.798;2022-09-12T16:56:23;7.55;;;4.05;;
35126;SDS011;21300;52.006;5.798;2022-09-12T16:58:49;7.57;;;3.97;;
35126;SDS011;21300;52.006;5.798;2022-09-12T17:01:16;7.10;;;4.00;;
35126;SDS011;21300;52.006;5.798;2022-09-12T17:03:46;8.93;;;4.10;;
35126;SDS011;21300;52.006;5.798;2022-09-12T17:06:13;7.65;;;3.90;;
35126;SDS011;21300;52.006;5.798;2022-09-12T17:08:41;4.65;;;3.70;;
35126;SDS011;21300;52.006;5.798;2022-09-12T17:11:13;6.70;;;4.15;;
35126;SDS011;21300;52.006;5.798;2022-09-12T17:13:47;7.18;;;4.10;;
35126;SDS011;21300;52.006;5.798;2022-09-12T17:16:17;5.00;;;3.63;;
35126;SDS011;21300;52.006;5.798;2022-09-12T17:18:43;4.68;;;3.67;;
35126;SDS011;21300;52.006;5.798;2022-09-12T17:21:09;6.10;;;3.50;;
35126;SDS011;21300;52.006;5.798;2022-09-12T17:23:36;4.82;;;3.72;;
35126;SDS011;21300;52.006;5.798;2022-09-12T17:26:02;5.47;;;3.80;;
35126;SDS011;21300;52.006;5.798;2022-09-12T17:28:28;6.15;;;3.65;;
35126;SDS011;21300;52.006;5.798;2022-09-12T17:30:58;5.05;;;3.35;;
35126;SDS011;21300;52.006;5.798;2022-09-12T17:33:25;8.50;;;3.53;;
35126;SDS011;21300;52.006;5.798;2022-09-12T17:35:51;4.60;;;3.50;;
35126;SDS011;21300;52.006;5.798;2022-09-12T17:38:17;5.85;;;3.78;;
35126;SDS011;21300;52.006;5.798;2022-09-12T17:40:43;3.47;;;3.17;;
35126;SDS011;21300;52.006;5.798;2022-09-12T17:45:54;4.30;;;3.90;;
35126;SDS011;21300;52.006;5.798;2022-09-12T17:48:21;5.10;;;3.80;;
35126;SDS011;21300;52.006;5.798;2022-09-12T17:50:46;4.22;;;3.83;;
35126;SDS011;21300;52.006;5.798;2022-09-12T17:53:12;6.13;;;3.50;;
35126;SDS011;21300;52.006;5.798;2022-09-12T17:55:38;7.05;;;3.65;;
35126;SDS011;21300;52.006;5.798;2022-09-12T17:58:05;3.78;;;3.40;;
35126;SDS011;21300;52.006;5.798;2022-09-12T18:00:31;4.95;;;3.60;;
35126;SDS011;21300;52.006;5.798;2022-09-12T18:03:20;5.35;;;3.63;;